Terminal Aerodrome Forecast
Issued by NWS

Home | Current Version | Previous Version | Text Only | Print | Product List | Glossary On
Versions: 1 2 3 4 5 6 7 8 9 10 11 12 13 14 15 16 17 18 19 20 21 22 23 24 25 26 27 28 29 30 31 32 33 34 35 36
000
FTUS44 KFWD 190600 AAA
TAFFTW
TAF AMD
KFTW 190636Z 1907/2006 03006KT 4SM BR SCT006 OVC018
     FM190800 03006KT 3SM -RA OVC006
     FM191500 03008KT 5SM BR OVC008
     FM192000 01006KT P6SM OVC012=

USA.gov is the U.S. government's official web portal to all federal, state and local government web resources and services.